Boonville, MO

3:26 PM CST on February 12, 2016 (GMT -0600)
APRSWXNET | | Change Station
CLOSE
Current Station
Personal Weather Station
Location: Boonville, MO
Elevation: 660 ft
Nearby Weather Stations

Elev 660 ft 38.98 °N, 92.74 °W | Updated 17 minutes ago

Clear
Clear
34 °F
Feels Like 29 °F
N
6
Wind Variable Wind from North
Gusts 15.0 mph

Today
High -- | Low -- °F
--% Chance of Precip.
Yesterday
High -- | Low -- °F
Precip. -- in
Pressure 30.44 in
Visibility 10.0 miles
Clouds Clear
Windchill 29 °F
Dew Point 17 °F
Humidity 49%
Rainfall in
Snow Depth Not available.
7:06 AM 5:44 PM
Waxing Crescent, 23% visible
METAR KDMO 122053Z AUTO 34017G23KT 10SM CLR 03/M09 A3041 RMK AO2 SLP307 T00281094 53002
Pressure 30.44 in
Visibility 10.0 miles
Clouds Clear
Windchill 29 °F
Dew Point 17 °F
Humidity 49%
Rainfall in
Snow Depth Not available.
7:06 AM 5:44 PM
Waxing Crescent, 23% visible
METAR KDMO 122053Z AUTO 34017G23KT 10SM CLR 03/M09 A3041 RMK AO2 SLP307 T00281094 53002

10-Day Weather Forecast

Almanac

Astronomy

Feb. 12, 2016 Rise Set
Actual Time
Civil Twilight
Nautical Twilight
Astronomical Twilight
Moon
Length of Visible Light
Length of Day
Tomorrow will be .
, % of the Moon is Illuminated

Today's Extremes

State Highs State Lows

Community

WunderPhotos

Upload Photos

1,892,403 photos uploaded!

WunderBlog® & News

Nearby

Air Quality

  Air Quality AQ Index Pollutant
Not available.

Snow Depth

Station Depth Elevation

Earthquake Activity

City Distance Mag. Time & Date
Minimum magnitude displayed is 2.5.

Coastal Water Temperatures

Place Temperature

Stations

Nearby Weather Stations

Station Location Temp. Windchill Dew Point Humidity Wind Precip. Elev Updated Type
                   

Watches & Warnings

There are currently no watches in effect.